sensor_id;sensor_type;location;lat;lon;timestamp;temperature;humidity
11239;DHT22;5677;48.488;13.436;2022-10-16T00:02:14;14.90;56.10
11239;DHT22;5677;48.488;13.436;2022-10-16T00:04:41;14.90;56.10
11239;DHT22;5677;48.488;13.436;2022-10-16T00:07:07;14.90;56.00
11239;DHT22;5677;48.488;13.436;2022-10-16T00:09:35;14.90;56.10
11239;DHT22;5677;48.488;13.436;2022-10-16T00:12:03;14.90;56.10
11239;DHT22;5677;48.488;13.436;2022-10-16T00:14:32;14.90;56.10
11239;DHT22;5677;48.488;13.436;2022-10-16T00:16:59;14.90;56.10
11239;DHT22;5677;48.488;13.436;2022-10-16T00:19:25;14.80;56.00
11239;DHT22;5677;48.488;13.436;2022-10-16T00:21:52;14.90;56.10
11239;DHT22;5677;48.488;13.436;2022-10-16T00:24:19;14.90;56.10
11239;DHT22;5677;48.488;13.436;2022-10-16T00:26:49;14.90;56.10
11239;DHT22;5677;48.488;13.436;2022-10-16T00:29:17;14.90;56.10
11239;DHT22;5677;48.488;13.436;2022-10-16T00:31:43;14.90;56.10
11239;DHT22;5677;48.488;13.436;2022-10-16T00:34:10;14.90;56.20
11239;DHT22;5677;48.488;13.436;2022-10-16T00:36:37;14.90;56.10
11239;DHT22;5677;48.488;13.436;2022-10-16T00:39:04;14.90;56.20
11239;DHT22;5677;48.488;13.436;2022-10-16T00:41:32;14.90;56.20
11239;DHT22;5677;48.488;13.436;2022-10-16T00:44:02;14.80;56.10
11239;DHT22;5677;48.488;13.436;2022-10-16T00:46:34;14.90;56.10
11239;DHT22;5677;48.488;13.436;2022-10-16T00:49:05;14.80;56.00
11239;DHT22;5677;48.488;13.436;2022-10-16T00:51:35;14.90;56.20
11239;DHT22;5677;48.488;13.436;2022-10-16T00:54:04;14.90;56.20
11239;DHT22;5677;48.488;13.436;2022-10-16T00:56:31;14.80;56.10
11239;DHT22;5677;48.488;13.436;2022-10-16T00:59:02;14.80;56.10
11239;DHT22;5677;48.488;13.436;2022-10-16T01:01:30;14.80;56.10
11239;DHT22;5677;48.488;13.436;2022-10-16T01:03:57;14.80;56.10
11239;DHT22;5677;48.488;13.436;2022-10-16T01:06:28;14.90;56.20
11239;DHT22;5677;48.488;13.436;2022-10-16T01:09:11;14.80;56.10
11239;DHT22;5677;48.488;13.436;2022-10-16T01:11:46;14.80;56.20
11239;DHT22;5677;48.488;13.436;2022-10-16T01:14:22;14.80;56.20
11239;DHT22;5677;48.488;13.436;2022-10-16T01:16:54;14.80;56.20
11239;DHT22;5677;48.488;13.436;2022-10-16T01:19:31;14.80;56.20
11239;DHT22;5677;48.488;13.436;2022-10-16T01:22:03;14.80;56.20
11239;DHT22;5677;48.488;13.436;2022-10-16T01:24:36;14.80;56.20
11239;DHT22;5677;48.488;13.436;2022-10-16T01:27:12;14.80;56.20
11239;DHT22;5677;48.488;13.436;2022-10-16T01:29:45;14.80;56.20
11239;DHT22;5677;48.488;13.436;2022-10-16T01:32:17;14.80;56.90
11239;DHT22;5677;48.488;13.436;2022-10-16T01:34:50;14.80;56.30
11239;DHT22;5677;48.488;13.436;2022-10-16T01:37:25;14.80;56.20
11239;DHT22;5677;48.488;13.436;2022-10-16T01:39:58;14.80;56.30
11239;DHT22;5677;48.488;13.436;2022-10-16T01:42:31;14.80;56.30
11239;DHT22;5677;48.488;13.436;2022-10-16T01:44:59;14.80;56.30
11239;DHT22;5677;48.488;13.436;2022-10-16T01:47:30;14.80;56.30
11239;DHT22;5677;48.488;13.436;2022-10-16T01:49:59;14.80;56.30
11239;DHT22;5677;48.488;13.436;2022-10-16T01:52:28;14.80;56.30
11239;DHT22;5677;48.488;13.436;2022-10-16T01:54:57;14.80;56.30
11239;DHT22;5677;48.488;13.436;2022-10-16T01:57:25;14.80;56.30
11239;DHT22;5677;48.488;13.436;2022-10-16T01:59:58;14.80;56.30
11239;DHT22;5677;48.488;13.436;2022-10-16T02:02:28;14.80;56.40
11239;DHT22;5677;48.488;13.436;2022-10-16T02:05:00;14.80;56.30
11239;DHT22;5677;48.488;13.436;2022-10-16T02:07:29;14.80;56.40
11239;DHT22;5677;48.488;13.436;2022-10-16T02:09:56;14.80;56.40
11239;DHT22;5677;48.488;13.436;2022-10-16T02:12:26;14.80;56.40
11239;DHT22;5677;48.488;13.436;2022-10-16T02:14:55;14.80;56.40
11239;DHT22;5677;48.488;13.436;2022-10-16T02:17:22;14.80;56.40
11239;DHT22;5677;48.488;13.436;2022-10-16T02:19:51;14.80;56.40
11239;DHT22;5677;48.488;13.436;2022-10-16T02:22:23;14.80;56.40
11239;DHT22;5677;48.488;13.436;2022-10-16T02:24:56;14.80;56.50
11239;DHT22;5677;48.488;13.436;2022-10-16T02:27:26;14.80;56.40
11239;DHT22;5677;48.488;13.436;2022-10-16T02:29:59;14.80;56.50
11239;DHT22;5677;48.488;13.436;2022-10-16T02:32:30;14.80;56.50
11239;DHT22;5677;48.488;13.436;2022-10-16T02:34:58;14.80;56.50
11239;DHT22;5677;48.488;13.436;2022-10-16T02:37:27;14.80;56.50
11239;DHT22;5677;48.488;13.436;2022-10-16T02:39:56;14.80;56.50
11239;DHT22;5677;48.488;13.436;2022-10-16T02:42:28;14.80;56.50
11239;DHT22;5677;48.488;13.436;2022-10-16T02:44:57;14.80;56.50
11239;DHT22;5677;48.488;13.436;2022-10-16T02:47:24;14.80;56.50
11239;DHT22;5677;48.488;13.436;2022-10-16T02:49:51;14.80;56.50
11239;DHT22;5677;48.488;13.436;2022-10-16T02:52:18;14.80;56.50
11239;DHT22;5677;48.488;13.436;2022-10-16T02:54:45;14.80;56.50
11239;DHT22;5677;48.488;13.436;2022-10-16T02:57:11;14.80;56.50
11239;DHT22;5677;48.488;13.436;2022-10-16T02:59:38;14.80;56.50
11239;DHT22;5677;48.488;13.436;2022-10-16T03:02:06;14.80;56.50
11239;DHT22;5677;48.488;13.436;2022-10-16T03:04:33;14.80;56.50
11239;DHT22;5677;48.488;13.436;2022-10-16T03:07:00;14.80;56.50
11239;DHT22;5677;48.488;13.436;2022-10-16T03:09:27;14.80;56.60
11239;DHT22;5677;48.488;13.436;2022-10-16T03:11:53;14.80;56.50
11239;DHT22;5677;48.488;13.436;2022-10-16T03:14:20;14.80;56.60
11239;DHT22;5677;48.488;13.436;2022-10-16T03:16:47;14.80;56.60
11239;DHT22;5677;48.488;13.436;2022-10-16T03:19:16;14.80;56.70
11239;DHT22;5677;48.488;13.436;2022-10-16T03:21:43;14.80;56.60
11239;DHT22;5677;48.488;13.436;2022-10-16T03:24:10;14.80;56.60
11239;DHT22;5677;48.488;13.436;2022-10-16T03:26:37;14.80;56.70
11239;DHT22;5677;48.488;13.436;2022-10-16T03:29:03;14.80;56.70
11239;DHT22;5677;48.488;13.436;2022-10-16T03:31:30;14.80;56.60
11239;DHT22;5677;48.488;13.436;2022-10-16T03:33:57;14.80;56.70
11239;DHT22;5677;48.488;13.436;2022-10-16T03:36:25;14.80;56.60
11239;DHT22;5677;48.488;13.436;2022-10-16T03:38:52;14.80;56.70
11239;DHT22;5677;48.488;13.436;2022-10-16T03:41:19;14.70;56.70
11239;DHT22;5677;48.488;13.436;2022-10-16T03:43:46;14.80;56.70
11239;DHT22;5677;48.488;13.436;2022-10-16T03:46:12;14.70;56.70
11239;DHT22;5677;48.488;13.436;2022-10-16T03:48:39;14.80;56.70
11239;DHT22;5677;48.488;13.436;2022-10-16T03:51:06;14.80;56.70
11239;DHT22;5677;48.488;13.436;2022-10-16T03:53:34;14.80;56.70
11239;DHT22;5677;48.488;13.436;2022-10-16T03:56:01;14.80;56.70
11239;DHT22;5677;48.488;13.436;2022-10-16T03:58:28;14.80;56.70
11239;DHT22;5677;48.488;13.436;2022-10-16T04:00:55;14.70;56.70
11239;DHT22;5677;48.488;13.436;2022-10-16T04:03:21;14.80;56.70
11239;DHT22;5677;48.488;13.436;2022-10-16T04:05:48;14.80;56.70
11239;DHT22;5677;48.488;13.436;2022-10-16T04:08:15;14.70;56.70
11239;DHT22;5677;48.488;13.436;2022-10-16T04:10:44;14.70;56.70
11239;DHT22;5677;48.488;13.436;2022-10-16T04:13:11;14.70;56.70
11239;DHT22;5677;48.488;13.436;2022-10-16T04:15:38;14.70;56.70
11239;DHT22;5677;48.488;13.436;2022-10-16T04:18:05;14.70;56.70
11239;DHT22;5677;48.488;13.436;2022-10-16T04:20:32;14.80;56.80
11239;DHT22;5677;48.488;13.436;2022-10-16T04:22:59;14.70;56.70
11239;DHT22;5677;48.488;13.436;2022-10-16T04:25:26;14.70;56.70
11239;DHT22;5677;48.488;13.436;2022-10-16T04:27:54;14.70;56.80
11239;DHT22;5677;48.488;13.436;2022-10-16T04:30:22;14.70;56.70
11239;DHT22;5677;48.488;13.436;2022-10-16T04:32:48;14.70;57.40
11239;DHT22;5677;48.488;13.436;2022-10-16T04:35:15;14.70;56.80
11239;DHT22;5677;48.488;13.436;2022-10-16T04:37:42;14.70;56.80
11239;DHT22;5677;48.488;13.436;2022-10-16T04:40:09;14.70;56.70
11239;DHT22;5677;48.488;13.436;2022-10-16T04:42:36;14.70;56.80
11239;DHT22;5677;48.488;13.436;2022-10-16T04:45:06;14.70;56.80
11239;DHT22;5677;48.488;13.436;2022-10-16T04:47:32;14.70;56.80
11239;DHT22;5677;48.488;13.436;2022-10-16T04:49:59;14.70;56.80
11239;DHT22;5677;48.488;13.436;2022-10-16T04:52:26;14.70;56.80
11239;DHT22;5677;48.488;13.436;2022-10-16T04:54:53;14.70;56.80
11239;DHT22;5677;48.488;13.436;2022-10-16T04:57:22;14.70;56.80
11239;DHT22;5677;48.488;13.436;2022-10-16T04:59:48;14.70;56.80
11239;DHT22;5677;48.488;13.436;2022-10-16T05:02:16;14.70;56.80
11239;DHT22;5677;48.488;13.436;2022-10-16T05:04:43;14.70;56.80
11239;DHT22;5677;48.488;13.436;2022-10-16T05:07:10;14.70;56.80
11239;DHT22;5677;48.488;13.436;2022-10-16T05:09:37;14.70;56.90
11239;DHT22;5677;48.488;13.436;2022-10-16T05:12:04;14.70;56.80
11239;DHT22;5677;48.488;13.436;2022-10-16T05:14:30;14.70;56.80
11239;DHT22;5677;48.488;13.436;2022-10-16T05:16:57;14.70;56.80
11239;DHT22;5677;48.488;13.436;2022-10-16T05:19:27;14.70;56.90
11239;DHT22;5677;48.488;13.436;2022-10-16T05:21:53;14.70;56.90
11239;DHT22;5677;48.488;13.436;2022-10-16T05:24:20;14.70;56.90
11239;DHT22;5677;48.488;13.436;2022-10-16T05:26:47;14.70;56.90
11239;DHT22;5677;48.488;13.436;2022-10-16T05:29:14;14.70;56.90
11239;DHT22;5677;48.488;13.436;2022-10-16T05:31:41;14.70;56.90
11239;DHT22;5677;48.488;13.436;2022-10-16T05:34:07;14.70;57.50
11239;DHT22;5677;48.488;13.436;2022-10-16T05:36:36;14.70;56.90
11239;DHT22;5677;48.488;13.436;2022-10-16T05:39:03;14.70;56.90
11239;DHT22;5677;48.488;13.436;2022-10-16T05:41:30;14.70;56.90
11239;DHT22;5677;48.488;13.436;2022-10-16T05:43:57;14.70;56.90
11239;DHT22;5677;48.488;13.436;2022-10-16T05:46:24;14.70;56.90
11239;DHT22;5677;48.488;13.436;2022-10-16T05:48:51;14.70;56.90
11239;DHT22;5677;48.488;13.436;2022-10-16T05:51:19;14.70;57.60
11239;DHT22;5677;48.488;13.436;2022-10-16T05:53:47;14.70;56.90
11239;DHT22;5677;48.488;13.436;2022-10-16T05:56:14;14.70;56.90
11239;DHT22;5677;48.488;13.436;2022-10-16T05:58:41;14.70;57.00
11239;DHT22;5677;48.488;13.436;2022-10-16T06:01:11;14.70;57.60
11239;DHT22;5677;48.488;13.436;2022-10-16T06:03:38;14.70;56.90
11239;DHT22;5677;48.488;13.436;2022-10-16T06:06:09;14.70;56.90
11239;DHT22;5677;48.488;13.436;2022-10-16T06:08:36;14.70;56.90
11239;DHT22;5677;48.488;13.436;2022-10-16T06:11:06;14.70;56.90
11239;DHT22;5677;48.488;13.436;2022-10-16T06:13:33;14.70;56.90
11239;DHT22;5677;48.488;13.436;2022-10-16T06:16:01;14.60;56.80
11239;DHT22;5677;48.488;13.436;2022-10-16T06:18:29;14.60;56.80
11239;DHT22;5677;48.488;13.436;2022-10-16T06:20:56;14.70;56.90
11239;DHT22;5677;48.488;13.436;2022-10-16T06:23:24;14.60;56.80
11239;DHT22;5677;48.488;13.436;2022-10-16T06:25:50;14.70;56.90
11239;DHT22;5677;48.488;13.436;2022-10-16T06:28:19;14.70;56.90
11239;DHT22;5677;48.488;13.436;2022-10-16T06:30:45;14.70;56.90
11239;DHT22;5677;48.488;13.436;2022-10-16T06:33:12;14.60;56.80
11239;DHT22;5677;48.488;13.436;2022-10-16T06:35:39;14.70;56.90
11239;DHT22;5677;48.488;13.436;2022-10-16T06:38:06;14.60;56.80
11239;DHT22;5677;48.488;13.436;2022-10-16T06:40:33;14.60;56.70
11239;DHT22;5677;48.488;13.436;2022-10-16T06:42:59;14.60;56.80
11239;DHT22;5677;48.488;13.436;2022-10-16T06:45:28;14.70;56.90
11239;DHT22;5677;48.488;13.436;2022-10-16T06:47:54;14.60;56.70
11239;DHT22;5677;48.488;13.436;2022-10-16T06:50:21;14.60;56.80
11239;DHT22;5677;48.488;13.436;2022-10-16T06:52:48;14.70;56.80
11239;DHT22;5677;48.488;13.436;2022-10-16T06:55:15;14.70;56.80
11239;DHT22;5677;48.488;13.436;2022-10-16T06:57:42;14.70;56.80
11239;DHT22;5677;48.488;13.436;2022-10-16T07:00:10;14.70;56.80
11239;DHT22;5677;48.488;13.436;2022-10-16T07:02:38;14.70;56.80
11239;DHT22;5677;48.488;13.436;2022-10-16T07:05:05;14.60;56.60
11239;DHT22;5677;48.488;13.436;2022-10-16T07:07:32;14.70;56.80
11239;DHT22;5677;48.488;13.436;2022-10-16T07:09:59;14.70;56.80
11239;DHT22;5677;48.488;13.436;2022-10-16T07:12:26;14.60;56.60
11239;DHT22;5677;48.488;13.436;2022-10-16T07:14:52;14.70;56.80
11239;DHT22;5677;48.488;13.436;2022-10-16T07:17:21;14.70;56.70
11239;DHT22;5677;48.488;13.436;2022-10-16T07:19:49;14.70;56.70
11239;DHT22;5677;48.488;13.436;2022-10-16T07:22:18;14.70;56.70
11239;DHT22;5677;48.488;13.436;2022-10-16T07:24:45;14.70;56.70
11239;DHT22;5677;48.488;13.436;2022-10-16T07:27:12;14.70;56.60
11239;DHT22;5677;48.488;13.436;2022-10-16T07:29:38;14.70;56.60
11239;DHT22;5677;48.488;13.436;2022-10-16T07:32:05;14.80;56.50
11239;DHT22;5677;48.488;13.436;2022-10-16T07:34:32;14.80;56.40
11239;DHT22;5677;48.488;13.436;2022-10-16T07:37:00;14.90;56.40
11239;DHT22;5677;48.488;13.436;2022-10-16T07:39:27;14.90;56.20
11239;DHT22;5677;48.488;13.436;2022-10-16T07:41:53;15.00;56.00
11239;DHT22;5677;48.488;13.436;2022-10-16T07:44:21;15.00;55.90
11239;DHT22;5677;48.488;13.436;2022-10-16T07:46:47;15.00;55.80
11239;DHT22;5677;48.488;13.436;2022-10-16T07:49:14;15.00;55.70
11239;DHT22;5677;48.488;13.436;2022-10-16T07:51:41;15.10;55.90
11239;DHT22;5677;48.488;13.436;2022-10-16T07:54:10;15.10;55.70
11239;DHT22;5677;48.488;13.436;2022-10-16T07:56:36;15.10;55.70
11239;DHT22;5677;48.488;13.436;2022-10-16T07:59:03;15.00;55.60
11239;DHT22;5677;48.488;13.436;2022-10-16T08:01:30;15.00;55.60
11239;DHT22;5677;48.488;13.436;2022-10-16T08:03:57;15.00;55.60
11239;DHT22;5677;48.488;13.436;2022-10-16T08:06:23;15.00;56.20
11239;DHT22;5677;48.488;13.436;2022-10-16T08:08:50;15.00;55.60
11239;DHT22;5677;48.488;13.436;2022-10-16T08:11:19;15.00;55.70
11239;DHT22;5677;48.488;13.436;2022-10-16T08:13:45;15.00;55.60
11239;DHT22;5677;48.488;13.436;2022-10-16T08:16:12;15.00;55.50
11239;DHT22;5677;48.488;13.436;2022-10-16T08:18:40;15.00;55.50
11239;DHT22;5677;48.488;13.436;2022-10-16T08:21:08;15.00;55.50
11239;DHT22;5677;48.488;13.436;2022-10-16T08:23:38;15.00;55.50
11239;DHT22;5677;48.488;13.436;2022-10-16T08:26:06;15.00;55.50
11239;DHT22;5677;48.488;13.436;2022-10-16T08:28:35;15.00;55.50
11239;DHT22;5677;48.488;13.436;2022-10-16T08:31:10;15.00;55.50
11239;DHT22;5677;48.488;13.436;2022-10-16T08:33:37;15.00;55.50
11239;DHT22;5677;48.488;13.436;2022-10-16T08:36:05;15.00;55.40
11239;DHT22;5677;48.488;13.436;2022-10-16T08:38:32;15.10;55.50
11239;DHT22;5677;48.488;13.436;2022-10-16T08:41:15;15.10;55.40
11239;DHT22;5677;48.488;13.436;2022-10-16T08:44:01;15.10;55.40
11239;DHT22;5677;48.488;13.436;2022-10-16T08:46:40;15.00;55.40
11239;DHT22;5677;48.488;13.436;2022-10-16T08:49:11;15.10;55.40
11239;DHT22;5677;48.488;13.436;2022-10-16T08:51:39;15.00;55.40
11239;DHT22;5677;48.488;13.436;2022-10-16T08:54:15;15.00;55.40
11239;DHT22;5677;48.488;13.436;2022-10-16T08:56:44;15.00;55.40
11239;DHT22;5677;48.488;13.436;2022-10-16T08:59:14;15.10;55.40
11239;DHT22;5677;48.488;13.436;2022-10-16T09:01:44;15.00;55.40
11239;DHT22;5677;48.488;13.436;2022-10-16T09:04:45;15.00;55.40
11239;DHT22;5677;48.488;13.436;2022-10-16T09:07:18;15.00;55.40
11239;DHT22;5677;48.488;13.436;2022-10-16T09:09:58;15.00;56.00
11239;DHT22;5677;48.488;13.436;2022-10-16T09:12:31;15.00;55.40
11239;DHT22;5677;48.488;13.436;2022-10-16T09:15:12;15.00;55.40
11239;DHT22;5677;48.488;13.436;2022-10-16T09:17:48;15.10;55.50
11239;DHT22;5677;48.488;13.436;2022-10-16T09:20:28;15.10;55.50
11239;DHT22;5677;48.488;13.436;2022-10-16T09:23:12;15.00;55.40
11239;DHT22;5677;48.488;13.436;2022-10-16T09:25:43;15.10;55.40
11239;DHT22;5677;48.488;13.436;2022-10-16T09:28:09;15.10;55.40
11239;DHT22;5677;48.488;13.436;2022-10-16T09:30:38;15.10;55.40
11239;DHT22;5677;48.488;13.436;2022-10-16T09:33:06;15.10;55.40
11239;DHT22;5677;48.488;13.436;2022-10-16T09:35:37;15.10;55.40
11239;DHT22;5677;48.488;13.436;2022-10-16T09:38:05;15.10;55.40
11239;DHT22;5677;48.488;13.436;2022-10-16T09:40:34;15.10;55.40
11239;DHT22;5677;48.488;13.436;2022-10-16T09:43:06;15.10;55.40
11239;DHT22;5677;48.488;13.436;2022-10-16T09:45:40;15.10;55.40
11239;DHT22;5677;48.488;13.436;2022-10-16T09:48:11;15.10;55.40
11239;DHT22;5677;48.488;13.436;2022-10-16T09:50:39;15.10;55.40
11239;DHT22;5677;48.488;13.436;2022-10-16T09:53:10;15.10;55.40
11239;DHT22;5677;48.488;13.436;2022-10-16T09:55:48;15.10;55.40
11239;DHT22;5677;48.488;13.436;2022-10-16T09:58:15;15.10;55.40
11239;DHT22;5677;48.488;13.436;2022-10-16T10:00:49;15.10;55.40
11239;DHT22;5677;48.488;13.436;2022-10-16T10:03:33;15.10;55.40
11239;DHT22;5677;48.488;13.436;2022-10-16T10:06:04;15.20;55.40
11239;DHT22;5677;48.488;13.436;2022-10-16T10:08:31;15.20;55.40
11239;DHT22;5677;48.488;13.436;2022-10-16T10:10:58;15.20;55.40
11239;DHT22;5677;48.488;13.436;2022-10-16T10:13:25;15.20;55.40
11239;DHT22;5677;48.488;13.436;2022-10-16T10:15:54;15.20;55.40
11239;DHT22;5677;48.488;13.436;2022-10-16T10:18:22;15.20;55.40
11239;DHT22;5677;48.488;13.436;2022-10-16T10:20:57;15.20;55.40
11239;DHT22;5677;48.488;13.436;2022-10-16T10:23:27;15.20;55.40
11239;DHT22;5677;48.488;13.436;2022-10-16T10:25:58;15.20;55.50
11239;DHT22;5677;48.488;13.436;2022-10-16T10:28:47;15.20;55.40
11239;DHT22;5677;48.488;13.436;2022-10-16T10:31:22;15.20;55.50
11239;DHT22;5677;48.488;13.436;2022-10-16T10:33:55;15.20;55.50
11239;DHT22;5677;48.488;13.436;2022-10-16T10:36:29;15.20;55.40
11239;DHT22;5677;48.488;13.436;2022-10-16T10:38:59;15.20;55.40
11239;DHT22;5677;48.488;13.436;2022-10-16T10:42:02;15.20;55.40
11239;DHT22;5677;48.488;13.436;2022-10-16T10:44:42;15.20;55.40
11239;DHT22;5677;48.488;13.436;2022-10-16T10:47:23;15.20;55.40
11239;DHT22;5677;48.488;13.436;2022-10-16T10:50:00;15.20;55.40
11239;DHT22;5677;48.488;13.436;2022-10-16T10:52:36;15.20;55.40
11239;DHT22;5677;48.488;13.436;2022-10-16T10:55:19;15.20;55.40
11239;DHT22;5677;48.488;13.436;2022-10-16T11:00:45;15.20;55.40
11239;DHT22;5677;48.488;13.436;2022-10-16T11:03:27;15.20;55.40
11239;DHT22;5677;48.488;13.436;2022-10-16T11:06:00;15.20;55.40
11239;DHT22;5677;48.488;13.436;2022-10-16T11:08:32;15.30;55.60
11239;DHT22;5677;48.488;13.436;2022-10-16T11:11:03;15.30;55.60
11239;DHT22;5677;48.488;13.436;2022-10-16T11:13:33;15.30;55.60
11239;DHT22;5677;48.488;13.436;2022-10-16T11:16:13;15.30;55.60
11239;DHT22;5677;48.488;13.436;2022-10-16T11:18:47;15.30;55.70
11239;DHT22;5677;48.488;13.436;2022-10-16T11:21:18;15.30;55.60
11239;DHT22;5677;48.488;13.436;2022-10-16T11:23:51;15.30;55.70
11239;DHT22;5677;48.488;13.436;2022-10-16T11:26:23;15.30;55.70
11239;DHT22;5677;48.488;13.436;2022-10-16T11:28:51;15.30;55.70
11239;DHT22;5677;48.488;13.436;2022-10-16T11:31:24;15.30;55.70
11239;DHT22;5677;48.488;13.436;2022-10-16T11:34:01;15.30;55.70
11239;DHT22;5677;48.488;13.436;2022-10-16T11:36:33;15.40;55.70
11239;DHT22;5677;48.488;13.436;2022-10-16T11:39:07;15.40;55.80
11239;DHT22;5677;48.488;13.436;2022-10-16T11:41:42;15.40;55.80
11239;DHT22;5677;48.488;13.436;2022-10-16T11:44:19;15.40;55.70
11239;DHT22;5677;48.488;13.436;2022-10-16T11:46:52;15.40;55.80
11239;DHT22;5677;48.488;13.436;2022-10-16T11:49:26;15.40;55.80
11239;DHT22;5677;48.488;13.436;2022-10-16T11:52:00;15.40;55.80
11239;DHT22;5677;48.488;13.436;2022-10-16T11:54:37;15.40;55.80
11239;DHT22;5677;48.488;13.436;2022-10-16T11:57:11;15.50;55.80
11239;DHT22;5677;48.488;13.436;2022-10-16T11:59:43;15.40;55.70
11239;DHT22;5677;48.488;13.436;2022-10-16T12:02:33;15.40;55.70
11239;DHT22;5677;48.488;13.436;2022-10-16T12:05:11;15.50;55.80
11239;DHT22;5677;48.488;13.436;2022-10-16T12:07:47;15.50;55.80
11239;DHT22;5677;48.488;13.436;2022-10-16T12:10:24;15.50;55.80
11239;DHT22;5677;48.488;13.436;2022-10-16T12:12:51;15.50;55.80
11239;DHT22;5677;48.488;13.436;2022-10-16T12:15:24;15.50;55.80
11239;DHT22;5677;48.488;13.436;2022-10-16T12:17:51;15.50;55.80
11239;DHT22;5677;48.488;13.436;2022-10-16T12:20:23;15.50;55.80
11239;DHT22;5677;48.488;13.436;2022-10-16T12:22:53;15.50;55.80
11239;DHT22;5677;48.488;13.436;2022-10-16T12:25:24;15.50;55.80
11239;DHT22;5677;48.488;13.436;2022-10-16T12:27:59;15.50;55.80
11239;DHT22;5677;48.488;13.436;2022-10-16T12:30:28;15.60;55.80
11239;DHT22;5677;48.488;13.436;2022-10-16T12:32:56;15.60;55.80
11239;DHT22;5677;48.488;13.436;2022-10-16T12:35:27;15.60;55.70
11239;DHT22;5677;48.488;13.436;2022-10-16T12:38:05;15.60;55.70
11239;DHT22;5677;48.488;13.436;2022-10-16T12:40:34;15.60;55.70
11239;DHT22;5677;48.488;13.436;2022-10-16T12:43:12;15.60;55.70
11239;DHT22;5677;48.488;13.436;2022-10-16T12:45:39;15.60;55.60
11239;DHT22;5677;48.488;13.436;2022-10-16T12:48:20;15.60;55.60
11239;DHT22;5677;48.488;13.436;2022-10-16T12:50:49;15.60;55.60
11239;DHT22;5677;48.488;13.436;2022-10-16T12:53:19;15.60;55.60
11239;DHT22;5677;48.488;13.436;2022-10-16T12:56:00;15.60;55.60
11239;DHT22;5677;48.488;13.436;2022-10-16T12:58:53;15.60;55.60
11239;DHT22;5677;48.488;13.436;2022-10-16T13:01:37;15.60;55.60
11239;DHT22;5677;48.488;13.436;2022-10-16T13:04:26;15.70;55.70
11239;DHT22;5677;48.488;13.436;2022-10-16T13:07:05;15.60;55.60
11239;DHT22;5677;48.488;13.436;2022-10-16T13:09:47;15.60;55.60
11239;DHT22;5677;48.488;13.436;2022-10-16T13:12:30;15.60;55.60
11239;DHT22;5677;48.488;13.436;2022-10-16T13:15:16;15.60;55.60
11239;DHT22;5677;48.488;13.436;2022-10-16T13:17:51;15.60;55.60
11239;DHT22;5677;48.488;13.436;2022-10-16T13:20:24;15.60;55.60
11239;DHT22;5677;48.488;13.436;2022-10-16T13:23:01;15.60;55.60
11239;DHT22;5677;48.488;13.436;2022-10-16T13:25:38;15.60;55.60
11239;DHT22;5677;48.488;13.436;2022-10-16T13:28:08;15.70;55.70
11239;DHT22;5677;48.488;13.436;2022-10-16T13:30:39;15.70;55.70
11239;DHT22;5677;48.488;13.436;2022-10-16T13:33:12;15.70;55.70
11239;DHT22;5677;48.488;13.436;2022-10-16T13:35:47;15.70;55.70
11239;DHT22;5677;48.488;13.436;2022-10-16T13:38:18;15.70;55.70
11239;DHT22;5677;48.488;13.436;2022-10-16T13:40:52;15.70;55.70
11239;DHT22;5677;48.488;13.436;2022-10-16T13:43:21;15.70;55.70
11239;DHT22;5677;48.488;13.436;2022-10-16T13:45:57;15.70;55.70
11239;DHT22;5677;48.488;13.436;2022-10-16T13:48:24;15.70;55.60
11239;DHT22;5677;48.488;13.436;2022-10-16T13:51:05;15.70;55.60
11239;DHT22;5677;48.488;13.436;2022-10-16T13:53:35;15.70;55.60
11239;DHT22;5677;48.488;13.436;2022-10-16T13:56:04;15.70;55.60
11239;DHT22;5677;48.488;13.436;2022-10-16T13:58:31;15.70;55.60
11239;DHT22;5677;48.488;13.436;2022-10-16T14:01:00;15.70;55.60
11239;DHT22;5677;48.488;13.436;2022-10-16T14:03:28;15.70;55.60
11239;DHT22;5677;48.488;13.436;2022-10-16T14:05:59;15.70;55.60
11239;DHT22;5677;48.488;13.436;2022-10-16T14:08:27;15.70;55.60
11239;DHT22;5677;48.488;13.436;2022-10-16T14:10:57;15.70;55.60
11239;DHT22;5677;48.488;13.436;2022-10-16T14:13:30;15.70;55.60
11239;DHT22;5677;48.488;13.436;2022-10-16T14:16:02;15.70;55.70
11239;DHT22;5677;48.488;13.436;2022-10-16T14:18:29;15.70;55.60
11239;DHT22;5677;48.488;13.436;2022-10-16T14:21:03;15.70;55.60
11239;DHT22;5677;48.488;13.436;2022-10-16T14:23:31;15.70;55.60
11239;DHT22;5677;48.488;13.436;2022-10-16T14:26:24;15.70;55.70
11239;DHT22;5677;48.488;13.436;2022-10-16T14:29:08;15.70;55.60
11239;DHT22;5677;48.488;13.436;2022-10-16T14:31:37;15.70;55.60
11239;DHT22;5677;48.488;13.436;2022-10-16T14:34:26;15.70;55.60
11239;DHT22;5677;48.488;13.436;2022-10-16T14:36:54;15.70;55.60
11239;DHT22;5677;48.488;13.436;2022-10-16T14:39:22;15.70;55.70
11239;DHT22;5677;48.488;13.436;2022-10-16T14:41:52;15.70;55.60
11239;DHT22;5677;48.488;13.436;2022-10-16T14:44:21;15.70;55.70
11239;DHT22;5677;48.488;13.436;2022-10-16T14:46:51;15.70;55.60
11239;DHT22;5677;48.488;13.436;2022-10-16T14:49:20;15.70;55.70
11239;DHT22;5677;48.488;13.436;2022-10-16T14:51:48;15.70;55.60
11239;DHT22;5677;48.488;13.436;2022-10-16T14:54:16;15.70;55.60
11239;DHT22;5677;48.488;13.436;2022-10-16T14:56:48;15.70;55.60
11239;DHT22;5677;48.488;13.436;2022-10-16T14:59:21;15.70;55.60
11239;DHT22;5677;48.488;13.436;2022-10-16T15:01:48;15.70;55.60
11239;DHT22;5677;48.488;13.436;2022-10-16T15:04:15;15.70;55.60
11239;DHT22;5677;48.488;13.436;2022-10-16T15:06:43;15.70;55.60
11239;DHT22;5677;48.488;13.436;2022-10-16T15:09:10;15.70;55.70
11239;DHT22;5677;48.488;13.436;2022-10-16T15:11:37;15.70;55.60
11239;DHT22;5677;48.488;13.436;2022-10-16T15:14:04;15.70;55.60
11239;DHT22;5677;48.488;13.436;2022-10-16T15:16:32;15.70;55.60
11239;DHT22;5677;48.488;13.436;2022-10-16T15:18:59;15.70;55.70
11239;DHT22;5677;48.488;13.436;2022-10-16T15:21:28;15.70;55.60
11239;DHT22;5677;48.488;13.436;2022-10-16T15:23:56;15.70;55.70
11239;DHT22;5677;48.488;13.436;2022-10-16T15:26:23;15.70;55.70
11239;DHT22;5677;48.488;13.436;2022-10-16T15:28:50;15.70;55.70
11239;DHT22;5677;48.488;13.436;2022-10-16T15:31:16;15.70;55.70
11239;DHT22;5677;48.488;13.436;2022-10-16T15:33:45;15.70;55.70
11239;DHT22;5677;48.488;13.436;2022-10-16T15:36:23;15.70;55.70
11239;DHT22;5677;48.488;13.436;2022-10-16T15:38:51;15.70;55.70
11239;DHT22;5677;48.488;13.436;2022-10-16T15:41:18;15.70;55.70
11239;DHT22;5677;48.488;13.436;2022-10-16T15:43:47;15.70;55.70
11239;DHT22;5677;48.488;13.436;2022-10-16T15:46:15;15.70;55.70
11239;DHT22;5677;48.488;13.436;2022-10-16T15:48:45;15.70;55.70
11239;DHT22;5677;48.488;13.436;2022-10-16T15:51:11;15.70;55.70
11239;DHT22;5677;48.488;13.436;2022-10-16T15:53:38;15.70;55.80